Brooks, Oregon
Current Conditions -  °F | °C
As of 8:56 AM on Friday 28 Nov 2014 (Local Time) from KSLE Reporting Station
Overcast Overcast  
Wind Chill: 55°   Ceiling: 4800
Heat Index: 55°   Visibility: 10mi
Dew Point: 48°   Wind: 17mph
Humidity: 77%   Direction: 190°S
Pressure: 29.63"   Gusts: 26mph
Location:  45.0168°N, 122.927°W
Report Text: KSLE 281656Z 19015G23KT 10SM SCT025 BKN048 OVC055 13/09 A2963 RMK AO2 RAE28 SLP034 P0001 T01280089
Loading
Personal Weather Stations






























Interactive Weather Map New forecast layout! Learn more

10-Day Weather Forecast

Advertisements
Track Severe Weather on mobile